Time;durP1;ratioP1;P1;durP2;ratioP2;P2;SDS_P1;SDS_P2;PMS_P1;PMS_P2;Temp;Humidity;BMP_temperature;BMP_pressure;BME280_temperature;BME280_humidity;BME280_pressure;Samples;Min_cycle;Max_cycle;Signal;HPM_P1;HPM_P2
2023/06/19 00:01:56;;;;;;;10.35;6.78;;;21.50;99.90;;;;;;5065957;28;20032;-66
2023/06/19 00:04:21;;;;;;;8.30;6.47;;;21.50;99.90;;;;;;5067078;28;20105;-66
2023/06/19 00:06:48;;;;;;;10.75;6.35;;;21.30;99.90;;;;;;5065917;28;20048;-66
2023/06/19 00:09:14;;;;;;;8.98;6.85;;;21.60;99.90;;;;;;5065598;28;20786;-66
2023/06/19 00:11:39;;;;;;;7.63;6.45;;;21.40;99.90;;;;;;5065602;28;20036;-66
2023/06/19 00:14:05;;;;;;;8.43;6.18;;;21.50;99.90;;;;;;5067100;28;20089;-66
2023/06/19 00:16:31;;;;;;;11.40;7.10;;;21.40;99.90;;;;;;5066810;28;20048;-66
2023/06/19 00:18:57;;;;;;;7.85;6.60;;;21.50;99.90;;;;;;5065690;28;20209;-66
2023/06/19 00:21:26;;;;;;;9.15;7.05;;;21.30;99.90;;;;;;5065032;28;20115;-66
2023/06/19 00:23:53;;;;;;;9.43;6.57;;;21.40;99.90;;;;;;5049317;28;20113;-66
2023/06/19 00:26:22;;;;;;;8.20;6.30;;;21.70;99.90;;;;;;5066512;28;20068;-66
2023/06/19 00:28:48;;;;;;;8.50;6.63;;;21.40;99.90;;;;;;5066858;28;20044;-66
2023/06/19 00:31:14;;;;;;;9.88;7.05;;;21.30;99.90;;;;;;5066307;28;20127;-66
2023/06/19 00:33:41;;;;;;;9.77;6.20;;;21.50;99.90;;;;;;5063592;28;20124;-66
2023/06/19 00:36:16;;;;;;;8.68;6.45;;;21.30;99.90;;;;;;5066517;28;20044;-66
2023/06/19 00:38:42;;;;;;;10.13;6.40;;;21.30;99.90;;;;;;5066739;28;20802;-66
2023/06/19 00:41:08;;;;;;;8.82;6.28;;;21.30;99.90;;;;;;5065450;28;20718;-66
2023/06/19 00:43:34;;;;;;;9.10;6.35;;;21.40;99.90;;;;;;5065375;28;20044;-66
2023/06/19 00:46:01;;;;;;;7.93;6.35;;;21.30;99.90;;;;;;5066909;28;20067;-66
2023/06/19 00:48:28;;;;;;;9.98;6.55;;;21.40;99.90;;;;;;5066453;28;20044;-66
2023/06/19 00:50:54;;;;;;;8.98;6.45;;;21.50;99.90;;;;;;5066175;28;20434;-66
2023/06/19 00:53:20;;;;;;;7.85;6.00;;;21.40;99.90;;;;;;5066440;28;20495;-66
2023/06/19 00:55:47;;;;;;;8.07;6.75;;;21.50;99.90;;;;;;5065014;28;20059;-66
2023/06/19 00:58:13;;;;;;;6.97;6.22;;;21.50;99.90;;;;;;5067097;28;20732;-66
2023/06/19 01:00:39;;;;;;;13.90;6.80;;;21.50;99.90;;;;;;5064563;28;20495;-66
2023/06/19 01:03:05;;;;;;;9.43;6.60;;;21.60;99.90;;;;;;5065262;28;20043;-66
2023/06/19 01:05:30;;;;;;;9.07;6.50;;;21.60;99.90;;;;;;5066632;28;20066;-66
2023/06/19 01:08:19;;;;;;;7.72;6.13;;;21.40;99.90;;;;;;5066736;28;20105;-66
2023/06/19 01:10:57;;;;;;;10.02;6.68;;;21.70;99.90;;;;;;5064739;28;20859;-66
2023/06/19 01:13:39;;;;;;;8.25;6.30;;;21.40;99.90;;;;;;5066259;28;20044;-66
2023/06/19 01:16:06;;;;;;;9.55;6.45;;;21.30;99.90;;;;;;5064432;28;20040;-66
2023/06/19 01:18:32;;;;;;;9.85;6.32;;;21.40;99.90;;;;;;5066228;28;20059;-66
2023/06/19 01:21:10;;;;;;;7.75;5.75;;;21.30;99.90;;;;;;5066198;28;20049;-66
2023/06/19 01:23:36;;;;;;;10.43;6.18;;;21.40;99.90;;;;;;5064648;28;20056;-66
2023/06/19 01:26:01;;;;;;;7.72;5.95;;;21.50;99.90;;;;;;5065613;28;20463;-66
2023/06/19 01:28:27;;;;;;;7.97;5.88;;;21.40;99.90;;;;;;5066183;28;20486;-66
2023/06/19 01:30:55;;;;;;;8.15;6.55;;;21.50;99.90;;;;;;5065479;28;20036;-66
2023/06/19 01:33:26;;;;;;;10.15;6.20;;;21.20;99.90;;;;;;5048189;28;20044;-65
2023/06/19 01:35:52;;;;;;;9.30;6.53;;;21.60;99.90;;;;;;5065920;28;20472;-66
2023/06/19 01:38:20;;;;;;;10.63;6.45;;;21.50;99.90;;;;;;5065591;28;20037;-66
2023/06/19 01:40:48;;;;;;;7.28;5.72;;;21.50;99.90;;;;;;5064353;28;20808;-66
2023/06/19 01:43:15;;;;;;;9.85;6.43;;;21.70;99.90;;;;;;5064901;28;20074;-66
2023/06/19 01:45:41;;;;;;;8.25;6.40;;;21.50;99.90;;;;;;5065678;28;20045;-66
2023/06/19 01:48:08;;;;;;;8.07;5.78;;;21.60;99.90;;;;;;5065987;28;20117;-66
2023/06/19 01:50:34;;;;;;;8.50;5.95;;;21.60;99.90;;;;;;5065597;28;20041;-66
2023/06/19 01:53:00;;;;;;;9.70;6.38;;;21.80;99.90;;;;;;5065466;28;20037;-66
2023/06/19 01:55:25;;;;;;;8.65;5.65;;;21.20;99.90;;;;;;5064286;28;20087;-66
2023/06/19 01:57:51;;;;;;;7.72;6.25;;;21.90;99.90;;;;;;5064615;28;20079;-66
2023/06/19 02:00:17;;;;;;;7.15;6.20;;;21.90;99.90;;;;;;5064488;28;20040;-66
2023/06/19 02:02:43;;;;;;;7.78;5.95;;;21.80;99.90;;;;;;5065968;28;20080;-66
2023/06/19 02:05:09;;;;;;;7.43;6.45;;;22.10;99.90;;;;;;5070018;28;20143;-66
2023/06/19 02:07:34;;;;;;;11.55;6.18;;;22.20;99.90;;;;;;5069672;28;20044;-66
2023/06/19 02:10:00;;;;;;;10.23;6.97;;;22.20;99.90;;;;;;5069447;28;20040;-66
2023/06/19 02:12:26;;;;;;;11.73;6.75;;;22.30;99.90;;;;;;5070145;28;20564;-66
2023/06/19 02:14:51;;;;;;;8.35;6.47;;;22.30;99.90;;;;;;5069211;28;20083;-66
2023/06/19 02:17:17;;;;;;;8.25;6.55;;;22.10;99.90;;;;;;5067688;28;20048;-66
2023/06/19 02:19:43;;;;;;;7.97;6.03;;;22.40;99.90;;;;;;5068627;28;20094;-66
2023/06/19 02:22:08;;;;;;;8.32;5.88;;;21.90;99.90;;;;;;5069336;28;20036;-66
2023/06/19 02:24:34;;;;;;;9.50;6.40;;;22.10;99.90;;;;;;5068488;28;20048;-66
2023/06/19 02:27:00;;;;;;;8.50;5.80;;;22.50;99.90;;;;;;5069673;28;20050;-66
2023/06/19 02:29:26;;;;;;;7.85;6.32;;;21.90;99.90;;;;;;5070039;28;20036;-66
2023/06/19 02:31:51;;;;;;;13.60;6.65;;;22.20;99.90;;;;;;5068545;28;20423;-66
2023/06/19 02:34:17;;;;;;;6.82;5.05;;;22.40;99.90;;;;;;5068382;28;20080;-66
2023/06/19 02:36:43;;;;;;;6.88;5.82;;;22.10;99.90;;;;;;5069700;28;20040;-66
2023/06/19 02:39:09;;;;;;;8.88;6.13;;;22.10;99.90;;;;;;5069699;28;20033;-66
2023/06/19 02:41:35;;;;;;;8.90;5.63;;;21.80;99.90;;;;;;5069286;28;20036;-65
2023/06/19 02:44:01;;;;;;;7.57;5.90;;;22.10;99.90;;;;;;5069315;28;20082;-66
2023/06/19 02:46:26;;;;;;;10.57;6.05;;;21.80;99.90;;;;;;5069266;28;20048;-66
2023/06/19 02:48:52;;;;;;;7.82;6.15;;;21.90;99.90;;;;;;5051214;28;20068;-66
2023/06/19 02:51:18;;;;;;;7.28;5.65;;;22.10;99.90;;;;;;5068172;28;20052;-66
2023/06/19 02:53:43;;;;;;;9.15;6.35;;;22.00;99.90;;;;;;5069486;28;20540;-66
2023/06/19 02:56:11;;;;;;;7.63;5.45;;;21.90;99.90;;;;;;5067832;28;20040;-66
2023/06/19 02:58:37;;;;;;;7.47;6.25;;;21.90;99.90;;;;;;5067424;28;20417;-66
2023/06/19 03:01:06;;;;;;;8.82;6.78;;;22.00;99.90;;;;;;5067678;28;20123;-66
2023/06/19 03:03:32;;;;;;;8.10;6.00;;;21.60;99.90;;;;;;5068437;28;20653;-66
2023/06/19 03:05:59;;;;;;;7.63;5.90;;;21.60;99.90;;;;;;5068960;28;20067;-66
2023/06/19 03:08:25;;;;;;;5.85;5.20;;;21.60;99.90;;;;;;5066967;28;20536;-66
2023/06/19 03:10:50;;;;;;;9.20;5.40;;;21.50;99.90;;;;;;5068692;28;20115;-65
2023/06/19 03:13:16;;;;;;;8.70;6.07;;;21.50;99.90;;;;;;5066630;28;20043;-66
2023/06/19 03:15:41;;;;;;;6.93;5.68;;;21.40;99.90;;;;;;5066716;28;20037;-66
2023/06/19 03:18:09;;;;;;;8.48;5.45;;;21.40;99.90;;;;;;5068517;28;20094;-65
2023/06/19 03:20:34;;;;;;;7.40;5.65;;;21.40;99.90;;;;;;5066782;28;20824;-66
2023/06/19 03:23:00;;;;;;;10.60;5.90;;;21.40;99.90;;;;;;5068181;28;20045;-66
2023/06/19 03:25:26;;;;;;;9.65;6.00;;;21.40;99.90;;;;;;5050029;28;20076;-66
2023/06/19 03:27:52;;;;;;;7.15;5.05;;;21.50;99.90;;;;;;5068018;28;20048;-66
2023/06/19 03:30:18;;;;;;;6.90;4.97;;;21.50;99.90;;;;;;5066945;28;20572;-66
2023/06/19 03:32:44;;;;;;;7.22;4.93;;;21.40;99.90;;;;;;5067999;28;20461;-66
2023/06/19 03:35:10;;;;;;;7.88;5.70;;;21.30;99.90;;;;;;5066700;28;20048;-66
2023/06/19 03:37:36;;;;;;;7.40;5.18;;;21.40;99.90;;;;;;5066681;28;20207;-65
2023/06/19 03:40:03;;;;;;;9.30;5.43;;;21.40;99.90;;;;;;5068069;28;20036;-66
2023/06/19 03:42:28;;;;;;;9.48;5.28;;;21.30;99.90;;;;;;5066739;28;20414;-66
2023/06/19 03:44:54;;;;;;;7.90;5.35;;;21.30;99.90;;;;;;5066075;28;20040;-66
2023/06/19 03:47:20;;;;;;;6.55;4.90;;;21.10;99.90;;;;;;5066632;28;20075;-66
2023/06/19 03:49:46;;;;;;;6.05;4.28;;;21.10;99.90;;;;;;5066743;28;20118;-66
2023/06/19 03:52:11;;;;;;;8.75;5.22;;;21.30;99.90;;;;;;5066317;28;20131;-66
2023/06/19 03:54:37;;;;;;;6.88;4.60;;;21.00;99.90;;;;;;5066326;28;20127;-66
2023/06/19 03:57:03;;;;;;;6.03;4.32;;;20.90;99.90;;;;;;5066991;28;20068;-66
2023/06/19 03:59:28;;;;;;;7.55;4.18;;;20.80;99.90;;;;;;5066331;28;20036;-66
2023/06/19 04:01:54;;;;;;;7.55;3.85;;;20.80;99.90;;;;;;5067326;28;20040;-66
2023/06/19 04:04:19;;;;;;;6.30;4.50;;;20.80;99.90;;;;;;5066048;28;20037;-66
2023/06/19 04:06:46;;;;;;;4.30;3.35;;;20.80;99.90;;;;;;5065748;28;20048;-66
2023/06/19 04:09:12;;;;;;;5.35;4.30;;;20.70;99.90;;;;;;5067254;28;20040;-66
2023/06/19 04:11:38;;;;;;;6.68;3.78;;;20.60;99.90;;;;;;5066383;28;20036;-66
2023/06/19 04:14:03;;;;;;;5.10;3.15;;;20.60;99.90;;;;;;5062918;28;20097;-66
2023/06/19 04:16:29;;;;;;;6.53;3.90;;;20.50;99.90;;;;;;5065861;28;20507;-67
2023/06/19 04:18:54;;;;;;;6.60;4.18;;;20.60;99.90;;;;;;5049160;28;20040;-66
2023/06/19 04:21:20;;;;;;;5.10;3.63;;;20.60;99.90;;;;;;5049421;28;20064;-66
2023/06/19 04:23:45;;;;;;;4.72;3.80;;;20.70;99.90;;;;;;5065878;28;20097;-66
2023/06/19 04:26:11;;;;;;;4.80;3.90;;;;;;;;;;5066153;28;20044;-66
2023/06/19 04:28:37;;;;;;;8.05;3.70;;;20.60;99.90;;;;;;5065668;28;20642;-65
2023/06/19 04:31:03;;;;;;;6.75;3.70;;;;;;;;;;5065701;28;20044;-67
2023/06/19 04:33:29;;;;;;;5.93;4.07;;;20.60;99.90;;;;;;5066962;28;20033;-65
2023/06/19 04:35:56;;;;;;;5.25;3.33;;;20.70;99.90;;;;;;5067291;28;20051;-66
2023/06/19 04:38:24;;;;;;;7.50;4.05;;;20.50;99.90;;;;;;5064651;28;20040;-65
2023/06/19 04:40:51;;;;;;;6.28;4.45;;;20.50;99.90;;;;;;5067112;28;20056;-66
2023/06/19 04:43:17;;;;;;;5.68;3.70;;;20.60;99.90;;;;;;5065396;28;20048;-66
2023/06/19 04:45:43;;;;;;;4.43;3.45;;;;;;;;;;5065531;28;20041;-66
2023/06/19 04:48:08;;;;;;;6.22;3.90;;;20.60;99.90;;;;;;5065566;28;20044;-65
2023/06/19 04:50:34;;;;;;;7.60;3.88;;;20.60;99.90;;;;;;5066910;28;20172;-66
2023/06/19 04:53:00;;;;;;;4.80;3.60;;;20.60;99.90;;;;;;5065409;28;20051;-66
2023/06/19 04:55:26;;;;;;;5.10;3.88;;;20.70;99.90;;;;;;5065341;28;20049;-66
2023/06/19 04:57:51;;;;;;;4.80;3.25;;;20.70;99.90;;;;;;5065131;28;20044;-66
2023/06/19 05:00:19;;;;;;;8.07;4.63;;;20.70;99.90;;;;;;5066475;28;20651;-65
2023/06/19 05:02:46;;;;;;;7.32;4.40;;;20.70;99.90;;;;;;5065416;28;20045;-66
2023/06/19 05:05:13;;;;;;;4.90;3.58;;;;;;;;;;5065194;28;20119;-66
2023/06/19 05:07:39;;;;;;;9.48;4.07;;;20.60;99.90;;;;;;5064970;28;20049;-66
2023/06/19 05:10:05;;;;;;;5.60;4.13;;;20.60;99.90;;;;;;5065272;28;20044;-65
2023/06/19 05:12:30;;;;;;;4.95;3.72;;;20.60;99.90;;;;;;5066673;28;20415;-66
2023/06/19 05:14:56;;;;;;;4.63;4.05;;;20.50;99.90;;;;;;5065977;28;20056;-66
2023/06/19 05:17:21;;;;;;;4.65;4.07;;;20.50;99.90;;;;;;5064571;28;20418;-66
2023/06/19 05:19:47;;;;;;;5.65;3.97;;;20.60;99.90;;;;;;5064868;28;20054;-66
2023/06/19 05:22:13;;;;;;;4.38;3.50;;;;;;;;;;5066468;28;20056;-66
2023/06/19 05:24:39;;;;;;;4.97;3.88;;;;;;;;;;5065109;28;20085;-66
2023/06/19 05:27:05;;;;;;;5.07;4.05;;;20.40;99.90;;;;;;5064754;28;20052;-66
2023/06/19 05:29:31;;;;;;;5.45;3.90;;;20.40;99.90;;;;;;5066342;28;20040;-66
2023/06/19 05:31:57;;;;;;;6.75;3.85;;;;;;;;;;5064449;28;20052;-66
2023/06/19 05:34:23;;;;;;;7.38;4.47;;;;;;;;;;5066160;28;20040;-66
2023/06/19 05:36:49;;;;;;;6.13;4.45;;;;;;;;;;5064351;28;20083;-66
2023/06/19 05:39:15;;;;;;;5.35;4.05;;;20.40;99.90;;;;;;5066214;28;20131;-66
2023/06/19 05:41:41;;;;;;;5.43;4.25;;;;;;;;;;5064451;28;20505;-65
2023/06/19 05:44:07;;;;;;;7.97;6.38;;;20.50;99.90;;;;;;5065795;28;20048;-66
2023/06/19 05:46:33;;;;;;;8.32;6.72;;;;;;;;;;5064480;28;20044;-66
2023/06/19 05:48:58;;;;;;;9.15;6.85;;;20.50;99.90;;;;;;5064270;28;20143;-66
2023/06/19 05:51:24;;;;;;;7.55;5.97;;;;;;;;;;5064223;28;20063;-66
2023/06/19 05:53:50;;;;;;;7.25;6.20;;;20.70;99.90;;;;;;5065621;28;20514;-66
2023/06/19 05:56:16;;;;;;;7.38;6.13;;;20.60;99.90;;;;;;5064427;28;20067;-66
2023/06/19 05:58:42;;;;;;;9.82;5.63;;;;;;;;;;5064030;28;20040;-66
2023/06/19 06:01:07;;;;;;;7.35;5.68;;;20.60;99.90;;;;;;5064637;28;20067;-66
2023/06/19 06:03:33;;;;;;;6.70;4.30;;;;;;;;;;5065429;28;20079;-65
2023/06/19 06:06:02;;;;;;;6.88;4.60;;;;;;;;;;5064184;28;20068;-66
2023/06/19 06:08:29;;;;;;;8.23;4.55;;;20.60;99.90;;;;;;5060908;28;20139;-66
2023/06/19 06:10:55;;;;;;;7.55;4.53;;;20.60;99.90;;;;;;5064328;28;20045;-66
2023/06/19 06:13:20;;;;;;;6.28;4.72;;;20.40;99.90;;;;;;5065384;28;20097;-66
2023/06/19 06:15:46;;;;;;;6.85;6.03;;;20.40;99.90;;;;;;5065176;28;20110;-66
2023/06/19 06:18:12;;;;;;;6.40;5.70;;;;;;;;;;5057540;28;20120;-66
2023/06/19 06:20:37;;;;;;;8.18;7.38;;;20.30;99.90;;;;;;5047030;28;20045;-66
2023/06/19 06:23:04;;;;;;;11.98;8.77;;;20.20;99.90;;;;;;5079302;28;20036;-66
2023/06/19 06:25:29;;;;;;;10.30;9.02;;;20.10;99.90;;;;;;5065633;28;20042;-66
2023/06/19 06:27:55;;;;;;;11.82;10.57;;;20.10;99.90;;;;;;5061582;28;20044;-65
2023/06/19 06:30:22;;;;;;;13.05;10.15;;;20.00;99.90;;;;;;5053833;28;20052;-66
2023/06/19 06:32:48;;;;;;;13.43;11.30;;;20.10;99.90;;;;;;5040015;28;20041;-65
2023/06/19 06:35:14;;;;;;;15.30;12.82;;;;;;;;;;5051824;28;20052;-66
2023/06/19 06:37:40;;;;;;;18.50;14.18;;;;;;;;;;5057100;28;20037;-66
2023/06/19 06:40:10;;;;;;;19.58;14.98;;;20.00;99.90;;;;;;5060015;28;20123;-66
2023/06/19 06:42:37;;;;;;;18.30;15.45;;;;;;;;;;5054421;28;20081;-72
2023/06/19 06:45:05;;;;;;;21.52;16.08;;;20.00;99.90;;;;;;5060925;28;20051;-70
2023/06/19 06:47:30;;;;;;;22.15;16.27;;;20.00;99.90;;;;;;5064976;28;20552;-67
2023/06/19 06:49:56;;;;;;;22.52;17.10;;;20.10;99.90;;;;;;5062000;28;20036;-66
2023/06/19 06:52:22;;;;;;;21.30;16.58;;;;;;;;;;5062876;28;20044;-66
2023/06/19 06:54:48;;;;;;;24.33;16.90;;;19.80;99.90;;;;;;5058732;28;20176;-66
2023/06/19 06:57:14;;;;;;;23.45;17.83;;;;;;;;;;5060121;28;20234;-66
2023/06/19 06:59:40;;;;;;;24.33;18.20;;;;;;;;;;5066509;28;20094;-67
2023/06/19 07:02:05;;;;;;;20.50;16.25;;;19.90;99.90;;;;;;5063782;28;20405;-66
2023/06/19 07:04:32;;;;;;;21.48;15.70;;;;;;;;;;5064676;28;20099;-66
2023/06/19 07:06:58;;;;;;;21.75;16.88;;;20.00;99.90;;;;;;5066396;28;20099;-65
2023/06/19 07:09:23;;;;;;;21.33;14.48;;;19.90;99.90;;;;;;5063683;28;20764;-66
2023/06/19 07:11:49;;;;;;;18.77;13.93;;;;;;;;;;5064037;28;20036;-71
2023/06/19 07:14:19;;;;;;;19.90;13.82;;;;;;;;;;5044716;28;20079;-71
2023/06/19 07:16:45;;;;;;;20.00;14.48;;;;;;;;;;5060283;28;20141;-70
2023/06/19 07:19:11;;;;;;;16.95;12.65;;;19.90;99.90;;;;;;5064383;28;20056;-70
2023/06/19 07:21:38;;;;;;;15.93;12.77;;;19.90;99.90;;;;;;5065913;28;20048;-66
2023/06/19 07:24:04;;;;;;;14.98;10.40;;;19.90;99.90;;;;;;5065916;28;20546;-66
2023/06/19 07:26:30;;;;;;;12.52;9.73;;;;;;;;;;5066973;28;20045;-66
2023/06/19 07:28:56;;;;;;;11.68;9.02;;;19.80;99.90;;;;;;5066293;28;20044;-66
2023/06/19 07:31:22;;;;;;;9.55;8.05;;;19.70;99.90;;;;;;5068029;28;20754;-67
2023/06/19 07:33:47;;;;;;;11.10;8.35;;;19.80;99.90;;;;;;5066744;28;20051;-67
2023/06/19 07:36:13;;;;;;;11.20;7.72;;;19.80;99.90;;;;;;5065647;28;20052;-68
2023/06/19 07:38:40;;;;;;;10.70;8.30;;;19.70;99.90;;;;;;5066949;28;20494;-67
2023/06/19 07:41:07;;;;;;;9.38;6.85;;;;;;;;;;5064972;28;20722;-68
2023/06/19 07:43:36;;;;;;;10.52;7.70;;;;;;;;;;5066574;28;20041;-66
2023/06/19 07:46:02;;;;;;;7.50;6.55;;;19.80;99.90;;;;;;5066432;28;20093;-66
2023/06/19 07:48:28;;;;;;;8.48;6.47;;;;;;;;;;5067713;28;20414;-66
2023/06/19 07:50:55;;;;;;;8.15;6.30;;;;;;;;;;5060728;28;20059;-68
2023/06/19 07:53:21;;;;;;;8.57;6.28;;;;;;;;;;5064267;28;20060;-68
2023/06/19 07:55:46;;;;;;;7.13;6.00;;;;;;;;;;5047835;28;20049;-68
2023/06/19 07:58:12;;;;;;;10.13;6.05;;;19.90;99.90;;;;;;5067590;28;20119;-68
2023/06/19 08:00:38;;;;;;;7.20;5.80;;;;;;;;;;5067371;28;20037;-68
2023/06/19 08:03:04;;;;;;;9.00;5.80;;;19.80;99.90;;;;;;5067740;28;20158;-73
2023/06/19 08:05:30;;;;;;;9.07;6.13;;;;;;;;;;5049011;28;20214;-67
2023/06/19 08:07:58;;;;;;;6.70;5.60;;;20.10;99.90;;;;;;5062899;28;20136;-69
2023/06/19 08:10:24;;;;;;;8.88;5.78;;;;;;;;;;5058173;28;20040;-72
2023/06/19 08:12:49;;;;;;;9.63;6.30;;;19.90;99.90;;;;;;5042350;28;20852;-72
2023/06/19 08:15:15;;;;;;;10.35;5.40;;;19.90;99.90;;;;;;5065125;28;20060;-72
2023/06/19 08:17:41;;;;;;;6.78;5.53;;;20.00;99.90;;;;;;5066055;28;20040;-71
2023/06/19 08:20:08;;;;;;;7.15;5.53;;;20.10;99.90;;;;;;5061217;28;20478;-71
2023/06/19 08:22:34;;;;;;;7.65;6.22;;;20.00;99.90;;;;;;5061419;28;20033;-67
2023/06/19 08:24:59;;;;;;;8.05;5.88;;;20.00;99.90;;;;;;5063351;28;20085;-67
2023/06/19 08:27:25;;;;;;;5.45;4.60;;;;;;;;;;5063263;28;20916;-67
2023/06/19 08:29:51;;;;;;;7.85;5.50;;;;;;;;;;5060835;28;20523;-68
2023/06/19 08:32:17;;;;;;;6.40;4.95;;;;;;;;;;5063279;28;20045;-69
2023/06/19 08:34:43;;;;;;;8.07;5.55;;;20.10;99.90;;;;;;5062306;28;20086;-66
2023/06/19 08:37:08;;;;;;;8.52;5.43;;;20.30;99.90;;;;;;5061766;28;20040;-67
2023/06/19 08:39:37;;;;;;;8.60;6.15;;;;;;;;;;5066562;28;20048;-67
2023/06/19 08:42:05;;;;;;;9.57;6.50;;;20.40;99.90;;;;;;5061227;28;20037;-67
2023/06/19 08:44:30;;;;;;;9.15;6.63;;;20.60;99.90;;;;;;5064475;28;20075;-67
2023/06/19 08:46:57;;;;;;;10.23;6.43;;;20.70;99.90;;;;;;5064343;28;20827;-67
2023/06/19 08:49:23;;;;;;;8.88;7.05;;;20.70;99.90;;;;;;5065302;28;20078;-67
2023/06/19 08:51:49;;;;;;;15.63;6.75;;;;;;;;;;5065053;28;20080;-67
2023/06/19 08:54:15;;;;;;;13.90;7.57;;;20.60;99.90;;;;;;5064437;28;20384;-67
2023/06/19 08:56:41;;;;;;;15.88;7.55;;;20.60;99.90;;;;;;5064852;28;20044;-67
2023/06/19 08:59:13;;;;;;;13.15;7.35;;;20.80;99.90;;;;;;5060762;28;20049;-67
2023/06/19 09:01:39;;;;;;;13.82;7.47;;;20.70;99.90;;;;;;5074643;28;20107;-67
2023/06/19 09:04:12;;;;;;;10.43;7.57;;;20.80;99.90;;;;;;5062965;28;20028;-67
2023/06/19 09:06:51;;;;;;;15.88;8.00;;;20.90;99.90;;;;;;5060501;28;20052;-67
2023/06/19 09:09:20;;;;;;;12.60;8.00;;;21.10;99.90;;;;;;5064457;28;20054;-67
2023/06/19 09:11:56;;;;;;;13.23;8.57;;;21.30;99.90;;;;;;5059315;28;20044;-67
2023/06/19 09:14:30;;;;;;;12.50;8.52;;;21.50;99.90;;;;;;5062950;28;20056;-67
2023/06/19 09:16:56;;;;;;;16.25;8.63;;;21.50;99.90;;;;;;5060747;28;20087;-67
2023/06/19 09:19:21;;;;;;;10.88;7.57;;;21.50;99.90;;;;;;5061258;28;20123;-67
2023/06/19 09:21:47;;;;;;;15.50;8.75;;;21.60;99.90;;;;;;5055438;28;20079;-67
2023/06/19 09:24:12;;;;;;;13.65;7.85;;;21.70;99.90;;;;;;5062046;28;20044;-67
2023/06/19 09:26:38;;;;;;;13.38;8.38;;;21.40;99.90;;;;;;5059740;28;20413;-67
2023/06/19 09:29:18;;;;;;;11.10;9.60;;;21.30;99.90;;;;;;5062527;28;20093;-67
2023/06/19 09:31:44;;;;;;;14.48;9.98;;;21.20;99.90;;;;;;5064034;28;20512;-67
2023/06/19 09:34:10;;;;;;;14.55;10.18;;;21.00;99.90;;;;;;5064890;28;20123;-67
2023/06/19 09:36:36;;;;;;;13.07;10.43;;;21.00;99.90;;;;;;5062471;28;20223;-67
2023/06/19 09:39:03;;;;;;;15.82;11.05;;;20.90;99.90;;;;;;5063097;28;20040;-67
2023/06/19 09:41:30;;;;;;;16.83;12.07;;;20.70;99.90;;;;;;5062066;28;20098;-67
2023/06/19 09:43:59;;;;;;;16.75;12.38;;;;;;;;;;5062717;28;20054;-67
2023/06/19 09:46:29;;;;;;;15.68;11.35;;;20.50;99.90;;;;;;5060903;28;20059;-67
2023/06/19 09:48:58;;;;;;;16.70;13.02;;;20.60;99.90;;;;;;5061417;28;20120;-67
2023/06/19 09:51:32;;;;;;;16.02;12.23;;;20.60;99.90;;;;;;5060848;28;20084;-67
2023/06/19 09:54:00;;;;;;;17.50;13.13;;;20.40;99.90;;;;;;5064007;28;20044;-67
2023/06/19 09:56:27;;;;;;;20.02;12.65;;;20.40;99.90;;;;;;5063611;28;20049;-67
2023/06/19 09:58:56;;;;;;;17.92;12.93;;;20.30;99.90;;;;;;5065366;28;20040;-67
2023/06/19 10:01:23;;;;;;;18.42;13.65;;;20.40;99.90;;;;;;5063653;28;20563;-67
2023/06/19 10:03:49;;;;;;;15.38;12.80;;;;;;;;;;5061612;28;20040;-67
2023/06/19 10:06:16;;;;;;;20.67;13.40;;;20.50;99.90;;;;;;5063842;28;20078;-67
2023/06/19 10:08:44;;;;;;;18.00;12.85;;;20.50;99.90;;;;;;5062765;28;20045;-67
2023/06/19 10:11:10;;;;;;;15.65;12.25;;;20.40;99.90;;;;;;5064385;28;20044;-67
2023/06/19 10:13:40;;;;;;;18.13;14.10;;;20.60;99.90;;;;;;5062032;28;20040;-67
2023/06/19 10:16:07;;;;;;;15.13;12.57;;;20.50;99.90;;;;;;5061480;28;20058;-67
2023/06/19 10:18:45;;;;;;;14.73;12.50;;;20.50;99.90;;;;;;5061466;28;20045;-67
2023/06/19 10:21:21;;;;;;;14.32;11.55;;;20.60;99.90;;;;;;5059366;28;20056;-67
2023/06/19 10:23:55;;;;;;;14.32;11.55;;;20.70;99.90;;;;;;5060246;28;20696;-67
2023/06/19 10:26:28;;;;;;;12.60;9.68;;;20.70;99.90;;;;;;5066150;28;20072;-67
2023/06/19 10:28:54;;;;;;;10.63;9.00;;;;;;;;;;5066536;28;20111;-67
2023/06/19 10:31:20;;;;;;;12.02;8.15;;;20.80;99.90;;;;;;5068360;28;20357;-67
2023/06/19 10:33:45;;;;;;;10.75;8.18;;;20.90;99.90;;;;;;5068961;28;20059;-67
2023/06/19 10:36:18;;;;;;;12.25;8.38;;;20.90;99.90;;;;;;5067247;28;20056;-68
2023/06/19 10:38:47;;;;;;;10.88;8.75;;;20.80;99.90;;;;;;5066299;28;20508;-68
2023/06/19 10:41:20;;;;;;;12.02;9.00;;;20.70;99.90;;;;;;5066282;28;20047;-68
2023/06/19 10:43:57;;;;;;;11.90;8.55;;;20.70;99.90;;;;;;5065827;28;20542;-68
2023/06/19 10:46:23;;;;;;;10.77;8.05;;;20.70;99.90;;;;;;5062780;28;20127;-68
2023/06/19 10:48:50;;;;;;;11.88;8.40;;;20.70;99.90;;;;;;5063351;28;20120;-68
2023/06/19 10:51:19;;;;;;;13.38;8.23;;;20.60;99.90;;;;;;5056555;28;20672;-68
2023/06/19 10:53:45;;;;;;;12.05;8.98;;;20.80;99.90;;;;;;5056336;28;20062;-68
2023/06/19 10:56:10;;;;;;;13.30;7.75;;;20.80;99.90;;;;;;5056916;28;20037;-69
2023/06/19 10:58:36;;;;;;;12.93;9.98;;;;;;;;;;5057697;28;20121;-69
2023/06/19 11:01:02;;;;;;;13.88;10.35;;;20.90;99.90;;;;;;5063906;28;20044;-68
2023/06/19 11:03:29;;;;;;;13.52;9.88;;;21.00;99.90;;;;;;5064478;28;20049;-69
2023/06/19 11:05:54;;;;;;;13.85;9.85;;;21.20;99.90;;;;;;5060636;28;20049;-68
2023/06/19 11:08:22;;;;;;;14.75;9.55;;;21.00;99.90;;;;;;5065409;28;20481;-69
2023/06/19 11:10:48;;;;;;;13.50;9.00;;;21.10;99.90;;;;;;5066555;28;20032;-69
2023/06/19 11:13:19;;;;;;;20.98;12.02;;;21.20;99.90;;;;;;5064862;28;20136;-67
2023/06/19 11:15:46;;;;;;;16.75;12.02;;;21.30;99.90;;;;;;5068065;28;20053;-67
2023/06/19 11:18:11;;;;;;;21.02;11.00;;;21.50;99.90;;;;;;5066274;28;20440;-66
2023/06/19 11:20:49;;;;;;;14.32;10.60;;;21.40;99.90;;;;;;5065368;28;20037;-67
2023/06/19 11:23:16;;;;;;;16.75;11.30;;;21.40;99.90;;;;;;5066461;28;20041;-68
2023/06/19 11:25:42;;;;;;;16.00;9.00;;;21.80;99.90;;;;;;5079272;28;20525;-68
2023/06/19 11:28:17;;;;;;;14.98;9.55;;;21.80;99.90;;;;;;5066340;28;20055;-68
2023/06/19 11:30:43;;;;;;;14.32;11.05;;;22.00;99.90;;;;;;5064682;28;20127;-68
2023/06/19 11:33:24;;;;;;;18.30;10.75;;;22.00;99.90;;;;;;5065321;28;20546;-68
2023/06/19 11:35:51;;;;;;;15.88;9.80;;;22.00;99.90;;;;;;5064007;28;20495;-68
2023/06/19 11:38:24;;;;;;;17.67;10.93;;;21.90;99.90;;;;;;5064868;28;20079;-68
2023/06/19 11:40:50;;;;;;;16.15;9.95;;;22.10;99.90;;;;;;5066256;28;20163;-67
2023/06/19 11:43:26;;;;;;;12.63;9.18;;;22.10;99.90;;;;;;5067329;28;20112;-66
2023/06/19 11:45:52;;;;;;;17.85;12.30;;;22.10;99.90;;;;;;5067338;28;20040;-66
2023/06/19 11:48:27;;;;;;;12.70;9.68;;;21.90;99.90;;;;;;5067491;28;20040;-67
2023/06/19 11:50:54;;;;;;;15.50;9.52;;;22.10;99.90;;;;;;5065813;28;20044;-66
2023/06/19 11:53:20;;;;;;;12.95;9.07;;;22.00;99.90;;;;;;5066445;28;20055;-66
2023/06/19 11:55:46;;;;;;;14.63;8.98;;;22.40;99.90;;;;;;5063687;28;20406;-66
2023/06/19 11:58:12;;;;;;;12.95;8.95;;;22.40;99.90;;;;;;5061129;28;20052;-66
2023/06/19 12:00:38;;;;;;;17.45;10.40;;;22.70;99.90;;;;;;5062340;28;20040;-66
2023/06/19 12:03:04;;;;;;;16.20;10.45;;;22.40;99.90;;;;;;5056277;28;20032;-66
2023/06/19 12:05:29;;;;;;;14.88;10.13;;;22.60;99.90;;;;;;5047828;28;20135;-66
2023/06/19 12:07:56;;;;;;;10.15;8.18;;;22.80;99.90;;;;;;5060927;28;20058;-67
2023/06/19 12:10:21;;;;;;;13.68;9.82;;;22.60;99.90;;;;;;5058055;28;20048;-67
2023/06/19 12:12:47;;;;;;;14.88;8.43;;;22.60;99.90;;;;;;5061173;28;20577;-66
2023/06/19 12:15:13;;;;;;;10.60;7.30;;;22.60;99.90;;;;;;5065011;28;20068;-67
2023/06/19 12:17:38;;;;;;;13.43;7.93;;;22.70;99.90;;;;;;5059068;28;20106;-66
2023/06/19 12:20:05;;;;;;;11.38;8.00;;;24.40;99.90;;;;;;5065332;28;20052;-67
2023/06/19 12:22:34;;;;;;;13.07;9.23;;;22.80;99.90;;;;;;5064660;28;20486;-67
2023/06/19 12:25:01;;;;;;;12.40;9.18;;;22.90;99.90;;;;;;5055937;28;20048;-66
2023/06/19 12:27:27;;;;;;;13.48;8.57;;;23.20;99.90;;;;;;5062813;28;20040;-66
2023/06/19 12:29:52;;;;;;;11.95;8.77;;;23.00;99.90;;;;;;5066187;28;20113;-67
2023/06/19 12:32:18;;;;;;;13.13;8.57;;;22.70;99.90;;;;;;5064079;28;20040;-66
2023/06/19 12:34:46;;;;;;;15.60;9.80;;;23.20;99.90;;;;;;5058764;28;20036;-66
2023/06/19 12:37:17;;;;;;;12.63;9.95;;;23.00;99.90;;;;;;5063251;28;20041;-67
2023/06/19 12:39:43;;;;;;;12.20;7.93;;;23.10;99.90;;;;;;5064913;28;20052;-67
2023/06/19 12:42:11;;;;;;;10.43;7.30;;;23.10;99.90;;;;;;5064183;28;20054;-66
2023/06/19 12:44:38;;;;;;;11.55;7.85;;;23.30;99.90;;;;;;5065059;28;20448;-67
2023/06/19 12:47:04;;;;;;;12.80;7.78;;;23.30;99.90;;;;;;5060804;28;20048;-66
2023/06/19 12:49:30;;;;;;;14.77;8.00;;;23.30;99.90;;;;;;5060320;28;20056;-67
2023/06/19 12:51:56;;;;;;;13.77;8.05;;;23.40;99.90;;;;;;5065307;28;20040;-67
2023/06/19 12:54:22;;;;;;;13.88;7.90;;;25.40;99.90;;;;;;5063848;28;20047;-67